Terminal Aerodrome Forecast
Issued by NWS

Current Version | Previous Version | Text Only | Print | Product List | Glossary On
Versions: 1 2 3 4 5 6 7 8 9 10 11 12 13
000
FTAK31 PAFA 232340
TAFAOT
TAF
PAOT 232340Z 2400/2424 10029KT 1/4SM SN FZFG VV008
     FM241200 12020G35KT 1/2SM -SN BLSN FZFG OVC005
     FM242100 15012KT 1 1/2SM -SHSN BR OVC007=

USA.gov is the U.S. government's official web portal to all federal, state and local government web resources and services.